createdAt,value
2022-09-07T00:00:52.847Z,18.42
2022-09-07T00:01:52.800Z,18.42
2022-09-07T00:02:52.830Z,18.36
2022-09-07T00:03:52.774Z,18.38
2022-09-07T00:05:03.419Z,18.35
2022-09-07T00:05:52.649Z,18.35
2022-09-07T00:06:52.637Z,18.34
2022-09-07T00:07:52.584Z,18.36
2022-09-07T00:08:52.539Z,18.35
2022-09-07T00:09:52.510Z,18.35
2022-09-07T00:10:52.468Z,18.36
2022-09-07T00:11:52.427Z,18.31
2022-09-07T00:12:52.400Z,18.32
2022-09-07T00:13:53.345Z,18.35
2022-09-07T00:14:52.316Z,18.36
2022-09-07T00:15:52.310Z,18.41
2022-09-07T00:16:52.250Z,18.36
2022-09-07T00:17:52.204Z,18.38
2022-09-07T00:18:52.177Z,18.32
2022-09-07T00:19:52.150Z,18.38
2022-09-07T00:20:52.086Z,18.34
2022-09-07T00:21:52.051Z,18.36
2022-09-07T00:22:52.014Z,18.25
2022-09-07T00:23:51.976Z,18.31
2022-09-07T00:24:51.946Z,18.32
2022-09-07T00:25:54.066Z,18.23
2022-09-07T00:26:51.864Z,18.21
2022-09-07T00:27:51.834Z,18.23
2022-09-07T00:28:51.803Z,18.14
2022-09-07T00:29:51.772Z,18.16
2022-09-07T00:30:51.729Z,18.20
2022-09-07T00:31:51.745Z,18.17
2022-09-07T00:32:51.653Z,18.19
2022-09-07T00:33:51.600Z,18.21
2022-09-07T00:34:51.563Z,18.13
2022-09-07T00:35:51.525Z,18.16
2022-09-07T00:36:51.520Z,17.98
2022-09-07T00:37:51.462Z,18.05
2022-09-07T00:38:51.427Z,17.96
2022-09-07T00:39:51.441Z,17.95
2022-09-07T00:40:51.340Z,17.99
2022-09-07T00:41:51.311Z,17.98
2022-09-07T00:42:51.263Z,17.98
2022-09-07T00:43:51.235Z,18.05
2022-09-07T00:44:51.200Z,17.98
2022-09-07T00:45:51.163Z,18.05
2022-09-07T00:46:51.161Z,17.99
2022-09-07T00:47:51.076Z,17.89
2022-09-07T00:48:51.041Z,17.91
2022-09-07T00:49:51.002Z,17.81
2022-09-07T00:50:50.974Z,17.81
2022-09-07T00:51:50.927Z,17.91
2022-09-07T00:52:50.893Z,17.94
2022-09-07T00:53:50.882Z,17.95
2022-09-07T00:54:50.816Z,17.89
2022-09-07T00:55:50.790Z,17.95
2022-09-07T00:56:50.738Z,17.83
2022-09-07T00:57:50.696Z,17.96
2022-09-07T00:58:50.662Z,17.89
2022-09-07T00:59:50.622Z,17.96
2022-09-07T01:00:50.601Z,17.94
2022-09-07T01:01:50.670Z,17.98
2022-09-07T01:02:50.628Z,17.89
2022-09-07T01:03:50.472Z,17.87
2022-09-07T01:04:50.447Z,17.92
2022-09-07T01:05:50.404Z,17.99
2022-09-07T01:06:50.360Z,17.92
2022-09-07T01:07:50.334Z,17.98
2022-09-07T01:08:50.304Z,17.94
2022-09-07T01:09:50.246Z,17.83
2022-09-07T01:10:50.218Z,17.79
2022-09-07T01:11:50.178Z,17.79
2022-09-07T01:12:50.134Z,17.89
2022-09-07T01:13:50.111Z,17.77
2022-09-07T01:14:50.058Z,17.87
2022-09-07T01:15:50.080Z,17.86
2022-09-07T01:16:49.984Z,17.80
2022-09-07T01:17:50.000Z,17.83
2022-09-07T01:18:49.966Z,17.79
2022-09-07T01:19:49.885Z,17.84
2022-09-07T01:20:49.833Z,17.87
2022-09-07T01:21:49.793Z,17.92
2022-09-07T01:22:49.763Z,17.84
2022-09-07T01:23:49.721Z,17.83
2022-09-07T01:24:49.687Z,17.76
2022-09-07T01:25:49.655Z,17.81
2022-09-07T01:26:49.607Z,17.71
2022-09-07T01:27:49.565Z,17.73
2022-09-07T01:28:49.536Z,17.71
2022-09-07T01:29:49.502Z,17.77
2022-09-07T01:30:49.483Z,17.73
2022-09-07T01:31:49.430Z,17.73
2022-09-07T01:32:49.384Z,17.65
2022-09-07T01:33:49.354Z,17.68
2022-09-07T01:34:49.307Z,17.74
2022-09-07T01:35:49.268Z,17.71
2022-09-07T01:36:49.233Z,17.76
2022-09-07T01:37:50.032Z,17.68
2022-09-07T01:38:49.172Z,17.68
2022-09-07T01:39:49.190Z,17.71
2022-09-07T01:40:49.077Z,17.65
2022-09-07T01:41:49.041Z,17.68
2022-09-07T01:42:49.010Z,17.62
2022-09-07T01:43:48.979Z,17.71
2022-09-07T01:44:58.012Z,17.63
2022-09-07T01:45:48.894Z,17.65
2022-09-07T01:46:48.880Z,17.58
2022-09-07T01:47:48.817Z,17.71
2022-09-07T01:48:48.781Z,17.60
2022-09-07T01:49:48.761Z,17.58
2022-09-07T01:50:48.704Z,17.62
2022-09-07T01:51:48.667Z,17.66
2022-09-07T01:52:48.629Z,17.65
2022-09-07T01:53:48.593Z,17.58
2022-09-07T01:54:48.554Z,17.63
2022-09-07T01:55:48.527Z,17.57
2022-09-07T01:56:48.479Z,17.46
2022-09-07T01:57:48.439Z,17.47
2022-09-07T01:58:48.403Z,17.46
2022-09-07T01:59:48.365Z,17.62
2022-09-07T02:00:48.328Z,17.54
2022-09-07T02:01:48.408Z,17.51
2022-09-07T02:02:48.311Z,17.53
2022-09-07T02:03:48.215Z,17.53
2022-09-07T02:04:48.177Z,17.49
2022-09-07T02:05:48.139Z,17.47
2022-09-07T02:06:48.103Z,17.55
2022-09-07T02:07:48.076Z,17.62
2022-09-07T02:08:48.028Z,17.57
2022-09-07T02:09:47.991Z,17.55
2022-09-07T02:10:47.951Z,17.58
2022-09-07T02:11:47.913Z,17.60
2022-09-07T02:12:47.874Z,17.51
2022-09-07T02:13:47.850Z,17.60
2022-09-07T02:14:52.350Z,17.55
2022-09-07T02:15:47.820Z,17.60
2022-09-07T02:16:47.728Z,17.54
2022-09-07T02:17:47.687Z,17.51
2022-09-07T02:18:47.659Z,17.58
2022-09-07T02:19:47.612Z,17.47
2022-09-07T02:20:47.573Z,17.55
2022-09-07T02:21:47.538Z,17.60
2022-09-07T02:22:47.504Z,17.49
2022-09-07T02:23:47.462Z,17.46
2022-09-07T02:24:47.432Z,17.57
2022-09-07T02:25:47.386Z,17.55
2022-09-07T02:26:47.350Z,17.62
2022-09-07T02:27:47.312Z,17.55
2022-09-07T02:28:47.274Z,17.63
2022-09-07T02:29:47.251Z,17.57
2022-09-07T02:30:47.222Z,17.54
2022-09-07T02:31:47.162Z,17.60
2022-09-07T02:32:47.123Z,17.58
2022-09-07T02:33:47.086Z,17.49
2022-09-07T02:34:47.049Z,17.63
2022-09-07T02:35:47.025Z,17.60
2022-09-07T02:36:46.971Z,17.62
2022-09-07T02:37:46.935Z,17.62
2022-09-07T02:38:46.896Z,17.71
2022-09-07T02:39:46.905Z,17.62
2022-09-07T02:40:46.835Z,17.68
2022-09-07T02:41:46.786Z,17.71
2022-09-07T02:42:46.746Z,17.66
2022-09-07T02:43:46.713Z,17.58
2022-09-07T02:44:46.683Z,17.73
2022-09-07T02:45:46.704Z,17.60
2022-09-07T02:46:46.610Z,17.63
2022-09-07T02:47:46.561Z,17.63
2022-09-07T02:48:46.523Z,17.63
2022-09-07T02:49:46.487Z,17.63
2022-09-07T02:50:46.446Z,17.70
2022-09-07T02:51:46.409Z,17.66
2022-09-07T02:52:46.383Z,17.66
2022-09-07T02:53:46.335Z,17.66
2022-09-07T02:54:46.298Z,17.62
2022-09-07T02:55:46.265Z,17.60
2022-09-07T02:56:46.221Z,17.57
2022-09-07T02:57:46.184Z,17.63
2022-09-07T02:58:46.158Z,17.62
2022-09-07T02:59:46.110Z,17.66
2022-09-07T03:00:46.072Z,17.51
2022-09-07T03:01:46.122Z,17.60
2022-09-07T03:02:46.065Z,17.62
2022-09-07T03:03:45.997Z,17.57
2022-09-07T03:04:45.927Z,17.65
2022-09-07T03:05:45.884Z,17.58
2022-09-07T03:06:45.849Z,17.55
2022-09-07T03:07:45.821Z,17.54
2022-09-07T03:08:45.782Z,17.54
2022-09-07T03:09:45.745Z,17.62
2022-09-07T03:10:45.704Z,17.60
2022-09-07T03:11:45.659Z,17.58
2022-09-07T03:12:45.620Z,17.55
2022-09-07T03:13:45.584Z,17.54
2022-09-07T03:14:45.559Z,17.49
2022-09-07T03:15:45.551Z,17.43
2022-09-07T03:16:45.468Z,17.40
2022-09-07T03:17:45.434Z,17.43
2022-09-07T03:18:45.419Z,17.43
2022-09-07T03:19:45.373Z,17.39
2022-09-07T03:20:45.318Z,17.36
2022-09-07T03:21:45.287Z,17.39
2022-09-07T03:22:45.259Z,17.39
2022-09-07T03:23:47.802Z,17.39
2022-09-07T03:24:45.171Z,17.42
2022-09-07T03:25:45.132Z,17.38
2022-09-07T03:26:45.097Z,17.36
2022-09-07T03:27:45.060Z,17.42
2022-09-07T03:28:45.056Z,17.39
2022-09-07T03:29:45.028Z,17.36
2022-09-07T03:30:44.953Z,17.33
2022-09-07T03:31:44.924Z,17.35
2022-09-07T03:32:44.874Z,17.33
2022-09-07T03:33:44.831Z,17.42
2022-09-07T03:34:44.799Z,17.43
2022-09-07T03:35:44.756Z,17.39
2022-09-07T03:36:44.716Z,17.38
2022-09-07T03:37:44.679Z,17.42
2022-09-07T03:38:44.642Z,17.35
2022-09-07T03:39:44.620Z,17.25
2022-09-07T03:40:44.593Z,17.25
2022-09-07T03:41:44.528Z,17.24
2022-09-07T03:42:44.494Z,17.27
2022-09-07T03:43:44.455Z,17.38
2022-09-07T03:44:44.413Z,17.39
2022-09-07T03:45:44.405Z,17.36
2022-09-07T03:46:44.358Z,17.32
2022-09-07T03:47:44.304Z,17.35
2022-09-07T03:48:44.263Z,17.36
2022-09-07T03:49:44.225Z,17.15
2022-09-07T03:50:44.187Z,17.24
2022-09-07T03:51:44.151Z,17.28
2022-09-07T03:52:44.124Z,17.27
2022-09-07T03:53:44.075Z,17.18
2022-09-07T03:54:44.036Z,17.28
2022-09-07T03:55:44.001Z,17.24
2022-09-07T03:56:43.960Z,17.20
2022-09-07T03:57:43.923Z,17.21
2022-09-07T03:58:43.902Z,17.15
2022-09-07T03:59:43.848Z,17.10
2022-09-07T04:00:43.811Z,17.07
2022-09-07T04:01:43.851Z,17.06
2022-09-07T04:02:43.812Z,17.09
2022-09-07T04:03:43.699Z,17.05
2022-09-07T04:04:43.666Z,17.05
2022-09-07T04:05:43.620Z,17.00
2022-09-07T04:06:43.593Z,17.07
2022-09-07T04:07:43.545Z,17.12
2022-09-07T04:08:43.509Z,17.06
2022-09-07T04:09:43.471Z,17.06
2022-09-07T04:10:43.430Z,17.05
2022-09-07T04:11:43.408Z,17.00
2022-09-07T04:12:43.354Z,16.99
2022-09-07T04:13:43.320Z,17.00
2022-09-07T04:14:43.290Z,16.91
2022-09-07T04:15:43.243Z,17.03
2022-09-07T04:16:43.255Z,17.02
2022-09-07T04:17:43.166Z,16.91
2022-09-07T04:18:43.127Z,16.99
2022-09-07T04:19:43.103Z,16.88
2022-09-07T04:20:43.052Z,16.99
2022-09-07T04:21:43.015Z,16.90
2022-09-07T04:22:42.975Z,17.06
2022-09-07T04:23:42.941Z,17.07
2022-09-07T04:24:42.900Z,17.10
2022-09-07T04:25:42.878Z,16.98
2022-09-07T04:26:42.842Z,17.05
2022-09-07T04:27:42.789Z,17.03
2022-09-07T04:28:42.753Z,16.98
2022-09-07T04:29:42.713Z,16.99
2022-09-07T04:30:42.731Z,17.02
2022-09-07T04:31:42.641Z,17.03
2022-09-07T04:32:42.610Z,17.03
2022-09-07T04:33:42.561Z,17.10
2022-09-07T04:34:42.523Z,17.15
2022-09-07T04:35:42.487Z,17.17
2022-09-07T04:36:42.445Z,17.07
2022-09-07T04:37:42.408Z,17.18
2022-09-07T04:38:42.390Z,17.09
2022-09-07T04:39:42.366Z,17.15
2022-09-07T04:40:42.312Z,17.18
2022-09-07T04:41:42.258Z,17.20
2022-09-07T04:42:42.222Z,17.18
2022-09-07T04:43:42.196Z,17.22
2022-09-07T04:44:42.143Z,17.21
2022-09-07T04:45:42.180Z,17.33
2022-09-07T04:46:42.065Z,17.30
2022-09-07T04:47:42.031Z,17.38
2022-09-07T04:48:41.993Z,17.38
2022-09-07T04:49:41.963Z,17.27
2022-09-07T04:50:41.927Z,17.27
2022-09-07T04:51:41.878Z,17.20
2022-09-07T04:52:41.861Z,17.22
2022-09-07T04:53:41.803Z,17.32
2022-09-07T04:54:41.765Z,17.20
2022-09-07T04:55:41.728Z,17.25
2022-09-07T04:56:41.703Z,17.18
2022-09-07T04:57:41.651Z,17.22
2022-09-07T04:58:41.614Z,17.18
2022-09-07T04:59:41.578Z,17.28
2022-09-07T05:00:41.537Z,17.35
2022-09-07T05:01:41.573Z,17.22
2022-09-07T05:02:41.542Z,17.36
2022-09-07T05:03:41.435Z,17.22
2022-09-07T05:04:41.385Z,17.21
2022-09-07T05:05:41.353Z,17.09
2022-09-07T05:06:41.313Z,17.15
2022-09-07T05:07:41.274Z,17.18
2022-09-07T05:08:41.246Z,17.18
2022-09-07T05:09:41.197Z,17.30
2022-09-07T05:10:41.170Z,17.39
2022-09-07T05:11:41.124Z,17.43
2022-09-07T05:12:41.084Z,17.36
2022-09-07T05:13:41.046Z,17.40
2022-09-07T05:14:41.008Z,17.46
2022-09-07T05:15:40.971Z,17.40
2022-09-07T05:16:40.987Z,17.35
2022-09-07T05:17:40.907Z,17.46
2022-09-07T05:18:40.856Z,17.46
2022-09-07T05:19:40.820Z,17.57
2022-09-07T05:20:40.783Z,17.42
2022-09-07T05:21:40.754Z,17.51
2022-09-07T05:22:40.705Z,17.54
2022-09-07T05:23:40.675Z,17.40
2022-09-07T05:24:40.630Z,17.42
2022-09-07T05:25:40.597Z,17.38
2022-09-07T05:26:40.555Z,17.38
2022-09-07T05:27:40.528Z,17.39
2022-09-07T05:28:40.594Z,17.43
2022-09-07T05:31:40.369Z,17.60
2022-09-07T05:32:40.353Z,17.55
2022-09-07T05:34:40.252Z,17.58
2022-09-07T05:35:40.229Z,17.58
2022-09-07T05:36:40.189Z,17.62
2022-09-07T05:37:40.142Z,17.66
2022-09-07T05:38:40.131Z,17.62
2022-09-07T05:39:40.117Z,17.68
2022-09-07T05:40:40.901Z,17.65
2022-09-07T05:41:39.989Z,17.71
2022-09-07T05:42:39.949Z,17.66
2022-09-07T05:45:39.909Z,17.79
2022-09-07T05:46:39.799Z,17.74
2022-09-07T05:47:39.762Z,17.77
2022-09-07T05:48:39.723Z,17.74
2022-09-07T05:49:39.718Z,17.76
2022-09-07T05:50:39.659Z,17.73
2022-09-07T05:51:39.616Z,17.79
2022-09-07T05:52:39.582Z,17.94
2022-09-07T05:53:39.536Z,17.95
2022-09-07T05:54:39.499Z,17.84
2022-09-07T05:55:39.474Z,17.87
2022-09-07T05:56:39.423Z,17.89
2022-09-07T05:57:39.385Z,17.79
2022-09-07T05:58:39.350Z,17.96
2022-09-07T05:59:39.313Z,17.89
2022-09-07T06:00:39.279Z,17.87
2022-09-07T06:01:39.289Z,17.92
2022-09-07T06:02:40.004Z,17.83
2022-09-07T06:03:39.163Z,18.01
2022-09-07T06:04:39.124Z,17.94
2022-09-07T06:05:39.088Z,17.95
2022-09-07T06:06:39.053Z,18.09
2022-09-07T06:07:39.029Z,18.07
2022-09-07T06:08:38.975Z,18.11
2022-09-07T06:10:46.128Z,18.25
2022-09-07T06:11:38.867Z,18.28
2022-09-07T06:12:38.828Z,18.31
2022-09-07T06:13:38.803Z,18.50
2022-09-07T06:14:38.752Z,18.59
2022-09-07T06:15:38.716Z,18.71
2022-09-07T06:16:38.701Z,18.90
2022-09-07T06:17:38.646Z,18.99
2022-09-07T06:18:38.617Z,19.05
2022-09-07T06:19:38.570Z,19.13
2022-09-07T06:20:38.530Z,19.23
2022-09-07T06:21:38.502Z,19.13
2022-09-07T06:22:38.461Z,19.05
2022-09-07T06:23:38.421Z,18.96
2022-09-07T06:24:38.399Z,18.83
2022-09-07T06:25:38.348Z,18.86
2022-09-07T06:26:38.318Z,18.90
2022-09-07T06:27:38.281Z,18.87
2022-09-07T06:28:38.248Z,18.76
2022-09-07T06:29:38.202Z,18.75
2022-09-07T06:30:38.178Z,18.74
2022-09-07T06:32:45.686Z,18.47
2022-09-07T06:33:38.055Z,18.44
2022-09-07T06:34:38.020Z,18.53
2022-09-07T06:35:37.989Z,18.42
2022-09-07T06:36:37.946Z,18.34
2022-09-07T06:37:37.909Z,18.39
2022-09-07T06:38:37.872Z,18.38
2022-09-07T06:39:37.858Z,18.35
2022-09-07T06:40:37.811Z,18.38
2022-09-07T06:42:37.726Z,18.28
2022-09-07T06:43:37.691Z,18.36
2022-09-07T06:44:37.664Z,18.57
2022-09-07T06:45:37.741Z,18.62
2022-09-07T06:47:07.358Z,18.65
2022-09-07T06:47:37.543Z,18.79
2022-09-07T06:48:40.462Z,18.82
2022-09-07T06:49:37.523Z,18.99
2022-09-07T06:50:37.433Z,19.10
2022-09-07T06:51:37.396Z,19.38
2022-09-07T06:53:39.294Z,19.49
2022-09-07T06:55:37.250Z,19.70
2022-09-07T06:56:37.213Z,19.76
2022-09-07T06:57:37.178Z,19.71
2022-09-07T06:58:42.160Z,19.52
2022-09-07T06:59:37.125Z,19.43
2022-09-07T07:00:37.125Z,19.47
2022-09-07T07:01:37.037Z,19.35
2022-09-07T07:02:36.997Z,19.27
2022-09-07T07:03:37.027Z,19.23
2022-09-07T07:04:40.851Z,19.10
2022-09-07T07:05:36.898Z,19.23
2022-09-07T07:06:36.853Z,19.15
2022-09-07T07:07:36.817Z,19.16
2022-09-07T07:08:36.782Z,19.16
2022-09-07T07:09:36.761Z,19.28
2022-09-07T07:10:36.720Z,19.40
2022-09-07T07:11:36.684Z,19.39
2022-09-07T07:12:58.365Z,19.58
2022-09-07T07:13:36.603Z,19.53
2022-09-07T07:14:39.715Z,19.65
2022-09-07T07:15:36.547Z,19.68
2022-09-07T07:16:36.552Z,19.58
2022-09-07T07:17:36.456Z,19.57
2022-09-07T07:18:36.699Z,19.61
2022-09-07T07:19:36.387Z,19.64
2022-09-07T07:20:36.346Z,19.60
2022-09-07T07:21:55.324Z,19.62
2022-09-07T07:22:46.649Z,19.52
2022-09-07T07:23:36.243Z,19.53
2022-09-07T07:24:36.200Z,19.61
2022-09-07T07:25:36.171Z,19.62
2022-09-07T07:26:36.134Z,19.76
2022-09-07T07:27:36.113Z,19.68
2022-09-07T07:29:36.025Z,19.94
2022-09-07T07:30:36.004Z,19.94
2022-09-07T07:31:35.953Z,20.05
2022-09-07T07:32:35.916Z,19.94
2022-09-07T07:33:35.900Z,20.00
2022-09-07T07:34:35.878Z,19.94
2022-09-07T07:35:35.813Z,19.85
2022-09-07T07:36:35.773Z,19.79
2022-09-07T07:37:35.741Z,19.82
2022-09-07T07:40:37.602Z,19.85
2022-09-07T07:42:35.567Z,20.10
2022-09-07T07:43:35.527Z,20.44
2022-09-07T07:44:35.488Z,20.64
2022-09-07T07:46:35.484Z,20.46
2022-09-07T07:47:35.406Z,20.51
2022-09-07T07:48:35.349Z,20.48
2022-09-07T07:49:35.312Z,20.68
2022-09-07T07:50:35.336Z,20.40
2022-09-07T07:52:49.917Z,20.41
2022-09-07T07:53:39.571Z,20.25
2022-09-07T07:53:42.822Z,20.41
2022-09-07T07:54:35.134Z,20.56
2022-09-07T07:55:50.350Z,20.81
2022-09-07T07:56:35.063Z,21.03
2022-09-07T07:57:35.044Z,21.08
2022-09-07T07:58:34.994Z,21.16
2022-09-07T07:59:34.970Z,21.30
2022-09-07T08:00:52.892Z,21.74
2022-09-07T08:01:34.919Z,22.27
2022-09-07T08:02:35.016Z,22.41
2022-09-07T08:03:34.815Z,22.36
2022-09-07T08:04:34.782Z,22.33
2022-09-07T08:05:34.760Z,22.12
2022-09-07T08:06:34.716Z,21.98
2022-09-07T08:07:34.684Z,22.02
2022-09-07T08:08:34.646Z,22.23
2022-09-07T08:09:34.613Z,22.30
2022-09-07T08:10:34.579Z,22.39
2022-09-07T08:11:34.555Z,22.36
2022-09-07T08:12:34.509Z,22.33
2022-09-07T08:13:34.480Z,22.45
2022-09-07T08:14:34.444Z,22.46
2022-09-07T08:15:34.417Z,22.59
2022-09-07T08:16:34.475Z,22.61
2022-09-07T08:17:34.344Z,22.81
2022-09-07T08:18:34.308Z,22.72
2022-09-07T08:19:34.275Z,22.57
2022-09-07T08:20:34.326Z,22.64
2022-09-07T08:21:34.205Z,22.88
2022-09-07T08:22:34.954Z,22.74
2022-09-07T08:23:34.138Z,22.72
2022-09-07T08:24:34.103Z,22.72
2022-09-07T08:25:34.070Z,22.56
2022-09-07T08:26:34.035Z,22.54
2022-09-07T08:27:34.006Z,22.67
2022-09-07T08:28:33.981Z,22.75
2022-09-07T08:29:35.497Z,22.84
2022-09-07T08:30:34.009Z,22.49
2022-09-07T08:31:33.939Z,22.36
2022-09-07T08:32:33.836Z,22.30
2022-09-07T08:33:33.800Z,22.19
2022-09-07T08:34:33.776Z,22.08
2022-09-07T08:35:33.733Z,22.19
2022-09-07T08:36:33.698Z,22.14
2022-09-07T08:37:33.665Z,22.38
2022-09-07T08:38:33.631Z,22.42
2022-09-07T08:39:33.659Z,22.54
2022-09-07T08:40:33.564Z,22.79
2022-09-07T08:42:04.867Z,23.34
2022-09-07T08:43:04.816Z,23.71
2022-09-07T08:44:04.779Z,23.57
2022-09-07T08:45:04.744Z,23.84
2022-09-07T08:46:04.711Z,24.26
2022-09-07T08:47:04.735Z,24.11
2022-09-07T08:48:04.660Z,24.27
2022-09-07T08:49:04.611Z,25.01
2022-09-07T08:50:04.577Z,25.35
2022-09-07T08:51:04.545Z,25.59
2022-09-07T08:52:04.510Z,25.82
2022-09-07T08:53:04.490Z,25.97
2022-09-07T08:54:04.446Z,26.50
2022-09-07T08:55:04.413Z,26.39
2022-09-07T08:56:04.379Z,26.49
2022-09-07T08:58:04.315Z,26.28
2022-09-07T08:59:04.319Z,25.96
2022-09-07T09:00:04.251Z,26.11
2022-09-07T09:04:21.086Z,26.93
2022-09-07T09:05:19.664Z,26.75
2022-09-07T09:06:04.144Z,26.98
2022-09-07T09:07:04.172Z,27.11
2022-09-07T09:08:03.999Z,27.18
2022-09-07T09:09:03.976Z,27.05
2022-09-07T09:10:03.936Z,27.05
2022-09-07T09:11:03.908Z,27.06
2022-09-07T09:12:03.885Z,26.83
2022-09-07T09:13:03.846Z,26.69
2022-09-07T09:14:03.814Z,27.30
2022-09-07T09:15:03.785Z,27.80
2022-09-07T09:16:03.846Z,27.91
2022-09-07T09:17:03.727Z,27.23
2022-09-07T09:18:03.693Z,26.84
2022-09-07T09:19:03.663Z,26.09
2022-09-07T09:20:03.632Z,25.83
2022-09-07T09:21:03.618Z,25.69
2022-09-07T09:22:03.573Z,25.61
2022-09-07T09:23:03.543Z,26.24
2022-09-07T09:24:03.517Z,26.79
2022-09-07T09:25:03.482Z,27.18
2022-09-07T09:26:03.461Z,27.28
2022-09-07T09:27:03.420Z,27.33
2022-09-07T09:28:03.393Z,27.43
2022-09-07T09:29:03.362Z,27.24
2022-09-07T09:30:03.358Z,27.34
2022-09-07T09:31:03.343Z,27.11
2022-09-07T09:32:03.284Z,27.20
2022-09-07T09:33:03.241Z,27.39
2022-09-07T09:34:03.207Z,27.45
2022-09-07T09:35:03.180Z,27.21
2022-09-07T09:36:03.163Z,26.47
2022-09-07T09:37:03.118Z,25.75
2022-09-07T09:38:03.113Z,25.45
2022-09-07T09:39:03.062Z,25.36
2022-09-07T09:40:03.343Z,25.67
2022-09-07T09:41:02.997Z,26.13
2022-09-07T09:42:02.966Z,26.27
2022-09-07T09:43:02.944Z,26.46
2022-09-07T09:44:02.916Z,26.12
2022-09-07T09:45:02.873Z,25.94
2022-09-07T09:46:18.219Z,25.96
2022-09-07T09:48:02.827Z,26.50
2022-09-07T09:49:02.751Z,26.57
2022-09-07T09:50:02.740Z,26.81
2022-09-07T09:53:02.628Z,27.03
2022-09-07T09:54:02.600Z,27.33
2022-09-07T09:55:23.699Z,27.30
2022-09-07T09:56:02.551Z,27.31
2022-09-07T09:57:02.504Z,27.18
2022-09-07T09:59:55.008Z,27.49
2022-09-07T10:00:05.739Z,27.71
2022-09-07T10:04:04.659Z,26.78
2022-09-07T10:05:02.262Z,27.02
2022-09-07T10:06:02.230Z,26.94
2022-09-07T10:07:02.201Z,26.71
2022-09-07T10:08:02.181Z,26.42
2022-09-07T10:09:02.260Z,26.36
2022-09-07T10:10:02.108Z,26.00
2022-09-07T10:11:02.082Z,25.82
2022-09-07T10:12:05.722Z,25.91
2022-09-07T10:13:02.019Z,25.83
2022-09-07T10:14:02.000Z,25.85
2022-09-07T10:15:01.960Z,25.67
2022-09-07T10:16:02.010Z,25.74
2022-09-07T10:17:02.285Z,25.71
2022-09-07T10:18:01.866Z,25.81
2022-09-07T10:19:01.835Z,25.89
2022-09-07T10:20:01.822Z,25.78
2022-09-07T10:21:01.773Z,25.90
2022-09-07T10:22:01.742Z,25.81
2022-09-07T10:23:01.714Z,25.82
2022-09-07T10:24:01.686Z,25.54
2022-09-07T10:25:01.654Z,25.34
2022-09-07T10:26:01.627Z,25.19
2022-09-07T10:27:01.586Z,25.38
2022-09-07T10:28:01.555Z,25.38
2022-09-07T10:29:09.279Z,25.23
2022-09-07T10:30:01.523Z,25.20
2022-09-07T10:31:01.539Z,25.20
2022-09-07T10:32:01.443Z,25.16
2022-09-07T10:33:01.393Z,25.01
2022-09-07T10:35:01.333Z,24.93
2022-09-07T10:36:01.305Z,24.86
2022-09-07T10:37:01.272Z,24.98
2022-09-07T10:38:01.246Z,25.07
2022-09-07T10:39:01.201Z,25.31
2022-09-07T10:40:01.220Z,25.67
2022-09-07T10:41:01.134Z,25.56
2022-09-07T10:42:01.107Z,25.46
2022-09-07T10:44:01.037Z,26.53
2022-09-07T10:45:01.006Z,26.96
2022-09-07T10:46:01.066Z,27.16
2022-09-07T10:47:00.973Z,27.33
2022-09-07T10:48:00.912Z,27.42
2022-09-07T10:49:00.891Z,27.39
2022-09-07T10:51:07.382Z,27.39
2022-09-07T10:52:00.784Z,26.98
2022-09-07T10:53:06.462Z,26.47
2022-09-07T10:55:00.691Z,25.72
2022-09-07T10:56:00.674Z,25.57
2022-09-07T10:57:00.627Z,25.74
2022-09-07T10:58:00.596Z,26.24
2022-09-07T10:59:02.861Z,26.76
2022-09-07T11:00:08.582Z,26.83
2022-09-07T11:01:00.504Z,26.56
2022-09-07T11:02:00.502Z,26.93
2022-09-07T11:04:00.507Z,27.12
2022-09-07T11:05:00.375Z,27.38
2022-09-07T11:06:00.361Z,27.91
2022-09-07T11:07:00.319Z,28.17
2022-09-07T11:08:00.284Z,28.01
2022-09-07T11:09:16.938Z,27.78
2022-09-07T11:10:00.224Z,27.81
2022-09-07T11:11:00.279Z,28.03
2022-09-07T11:12:02.103Z,27.84
2022-09-07T11:13:00.129Z,27.88
2022-09-07T11:14:12.422Z,27.78
2022-09-07T11:15:00.079Z,27.84
2022-09-07T11:16:00.067Z,27.52
2022-09-07T11:17:00.249Z,27.09
2022-09-07T11:17:59.981Z,27.35
2022-09-07T11:20:00.591Z,26.98
2022-09-07T11:20:59.890Z,26.53
2022-09-07T11:21:59.859Z,26.09
2022-09-07T11:22:59.839Z,25.96
2022-09-07T11:23:59.800Z,25.74
2022-09-07T11:25:59.736Z,25.56
2022-09-07T11:26:59.708Z,25.48
2022-09-07T11:27:59.673Z,25.23
2022-09-07T11:29:59.609Z,25.05
2022-09-07T11:31:00.574Z,25.08
2022-09-07T11:31:59.550Z,25.09
2022-09-07T11:32:59.536Z,25.29
2022-09-07T11:34:59.467Z,25.51
2022-09-07T11:35:59.421Z,25.45
2022-09-07T11:36:59.389Z,25.30
2022-09-07T11:37:59.368Z,25.30
2022-09-07T11:38:59.322Z,25.44
2022-09-07T11:39:59.419Z,25.38
2022-09-07T11:40:59.257Z,25.46
2022-09-07T11:41:59.251Z,25.30
2022-09-07T11:42:59.198Z,25.36
2022-09-07T11:43:59.161Z,25.27
2022-09-07T11:44:59.128Z,25.49
2022-09-07T11:45:59.175Z,25.76
2022-09-07T11:46:59.063Z,26.13
2022-09-07T11:47:59.031Z,26.34
2022-09-07T11:48:59.002Z,26.44
2022-09-07T11:49:59.616Z,26.69
2022-09-07T11:50:58.949Z,26.98
2022-09-07T11:52:05.071Z,27.06
2022-09-07T11:52:58.869Z,27.25
2022-09-07T11:53:58.857Z,27.20
2022-09-07T11:54:58.808Z,27.24
2022-09-07T11:55:58.773Z,26.96
2022-09-07T11:56:58.750Z,26.65
2022-09-07T11:57:58.718Z,26.61
2022-09-07T11:58:58.676Z,26.53
2022-09-07T11:59:58.644Z,26.42
2022-09-07T12:00:58.611Z,26.34
2022-09-07T12:01:58.580Z,26.29
2022-09-07T12:03:00.334Z,26.12
2022-09-07T12:03:58.634Z,26.09
2022-09-07T12:04:58.600Z,26.17
2022-09-07T12:05:58.452Z,26.23
2022-09-07T12:06:58.419Z,26.19
2022-09-07T12:07:58.388Z,26.35
2022-09-07T12:08:58.353Z,26.49
2022-09-07T12:09:58.335Z,26.38
2022-09-07T12:10:58.292Z,26.56
2022-09-07T12:11:58.261Z,26.47
2022-09-07T12:12:58.227Z,26.61
2022-09-07T12:13:58.199Z,26.68
2022-09-07T12:14:58.173Z,26.44
2022-09-07T12:15:58.195Z,26.51
2022-09-07T12:16:58.100Z,26.49
2022-09-07T12:17:58.070Z,26.42
2022-09-07T12:18:58.037Z,26.73
2022-09-07T12:19:58.005Z,26.87
2022-09-07T12:20:57.987Z,26.64
2022-09-07T12:21:57.987Z,26.69
2022-09-07T12:23:02.234Z,26.88
2022-09-07T12:23:57.879Z,26.93
2022-09-07T12:24:57.922Z,26.97
2022-09-07T12:25:57.851Z,26.78
2022-09-07T12:26:57.781Z,26.73
2022-09-07T12:27:57.755Z,26.64
2022-09-07T12:28:57.722Z,26.69
2022-09-07T12:29:57.689Z,26.69
2022-09-07T12:30:57.711Z,26.71
2022-09-07T12:31:59.566Z,26.64
2022-09-07T12:32:58.721Z,26.73
2022-09-07T12:33:57.566Z,26.76
2022-09-07T12:34:57.546Z,26.68
2022-09-07T12:35:57.497Z,26.60
2022-09-07T12:36:57.480Z,26.53
2022-09-07T12:37:57.435Z,26.50
2022-09-07T12:38:57.405Z,26.54
2022-09-07T12:39:57.446Z,26.44
2022-09-07T12:40:57.339Z,26.35
2022-09-07T12:42:57.286Z,26.03
2022-09-07T12:43:57.247Z,25.90
2022-09-07T12:44:57.212Z,25.83
2022-09-07T12:45:57.240Z,25.76
2022-09-07T12:46:57.163Z,25.69
2022-09-07T12:47:57.120Z,25.71
2022-09-07T12:48:57.086Z,25.61
2022-09-07T12:49:57.052Z,25.56
2022-09-07T12:50:57.112Z,25.63
2022-09-07T12:52:03.498Z,25.59
2022-09-07T12:52:56.973Z,25.60
2022-09-07T12:53:57.892Z,25.75
2022-09-07T12:55:23.513Z,25.94
2022-09-07T12:57:56.795Z,26.31
2022-09-07T12:58:56.774Z,26.38
2022-09-07T12:59:56.730Z,26.49
2022-09-07T13:00:56.782Z,26.69
2022-09-07T13:01:57.314Z,26.83
2022-09-07T13:02:56.886Z,26.94
2022-09-07T13:03:56.600Z,26.98
2022-09-07T13:04:56.582Z,27.03
2022-09-07T13:05:56.537Z,27.11
2022-09-07T13:07:03.948Z,27.16
2022-09-07T13:08:04.321Z,27.27
2022-09-07T13:08:56.446Z,27.15
2022-09-07T13:09:56.448Z,27.01
2022-09-07T13:10:56.388Z,27.06
2022-09-07T13:11:57.063Z,27.08
2022-09-07T13:12:57.982Z,27.09
2022-09-07T13:14:05.071Z,26.93
2022-09-07T13:14:56.957Z,26.87
2022-09-07T13:15:57.167Z,26.78
2022-09-07T13:17:56.152Z,26.78
2022-09-07T13:18:56.119Z,26.98
2022-09-07T13:19:56.088Z,27.01
2022-09-07T13:20:56.054Z,27.16
2022-09-07T13:21:56.024Z,27.21
2022-09-07T13:22:56.001Z,27.06
2022-09-07T13:23:55.957Z,26.84
2022-09-07T13:24:56.638Z,26.72
2022-09-07T13:25:55.898Z,26.60
2022-09-07T13:26:55.859Z,26.68
2022-09-07T13:27:55.827Z,26.59
2022-09-07T13:28:55.832Z,26.72
2022-09-07T13:29:55.765Z,26.73
2022-09-07T13:30:55.783Z,26.84
2022-09-07T13:31:55.700Z,26.76